createdAt,value
2023-04-02T00:00:04.371Z,92170.84
2023-04-02T00:02:31.838Z,92167.69
2023-04-02T00:05:18.204Z,92167.84
2023-04-02T00:07:48.815Z,92176.50
2023-04-02T00:10:50.936Z,92171.13
2023-04-02T00:13:22.734Z,92169.34
2023-04-02T00:15:50.052Z,92170.84
2023-04-02T00:18:18.681Z,92163.81
2023-04-02T00:20:51.260Z,92170.53
2023-04-02T00:23:17.767Z,92173.78
2023-04-02T00:25:45.476Z,92165.75
2023-04-02T00:28:17.298Z,92170.66
2023-04-02T00:30:54.263Z,92169.59
2023-04-02T00:33:22.750Z,92176.28
2023-04-02T00:35:50.593Z,92181.94
2023-04-02T00:38:30.464Z,92168.84
2023-04-02T00:40:58.509Z,92159.19
2023-04-02T00:43:27.819Z,92171.13
2023-04-02T00:45:56.084Z,92168.00
2023-04-02T00:48:39.431Z,92167.69
2023-04-02T00:51:24.870Z,92168.88
2023-04-02T00:53:52.696Z,92152.97
2023-04-02T00:56:32.133Z,92158.91
2023-04-02T00:58:58.640Z,92165.47
2023-04-02T01:01:27.838Z,92172.91
2023-04-02T01:03:58.244Z,92165.44
2023-04-02T01:06:29.585Z,92169.94
2023-04-02T01:09:02.474Z,92166.06
2023-04-02T01:11:47.558Z,92168.44
2023-04-02T01:14:33.000Z,92167.84
2023-04-02T01:17:15.521Z,92165.59
2023-04-02T01:20:07.521Z,92164.13
2023-04-02T01:22:55.343Z,92172.19
2023-04-02T01:25:31.727Z,92169.47
2023-04-02T01:28:05.028Z,92168.75
2023-04-02T01:30:33.124Z,92170.84
2023-04-02T01:32:59.642Z,92170.69
2023-04-02T01:35:26.288Z,92166.66
2023-04-02T01:38:06.458Z,92164.88
2023-04-02T01:40:39.866Z,92170.22
2023-04-02T01:43:39.358Z,92171.81
2023-04-02T01:46:29.915Z,92170.16
2023-04-02T01:48:56.941Z,92171.66
2023-04-02T01:51:33.639Z,92174.75
2023-04-02T01:54:01.810Z,92176.06
2023-04-02T01:56:28.624Z,92168.31
2023-04-02T01:58:56.792Z,92175.63
2023-04-02T02:01:24.833Z,92169.38
2023-04-02T02:03:51.400Z,92183.84
2023-04-02T02:06:18.103Z,92178.91
2023-04-02T02:08:56.456Z,92176.81
2023-04-02T02:11:24.812Z,92169.22
2023-04-02T02:13:55.038Z,92181.88
2023-04-02T02:16:21.573Z,92180.38
2023-04-02T02:18:52.206Z,92185.16
2023-04-02T02:21:38.440Z,92176.66
2023-04-02T02:24:05.180Z,92190.66
2023-04-02T02:26:33.873Z,92196.47
2023-04-02T02:29:00.484Z,92200.47
2023-04-02T02:31:31.126Z,92193.91
2023-04-02T02:34:09.140Z,92198.03
2023-04-02T02:36:45.543Z,92199.31
2023-04-02T02:39:42.412Z,92215.59
2023-04-02T02:42:18.552Z,92204.56
2023-04-02T02:44:49.168Z,92212.91
2023-04-02T02:47:21.362Z,92216.38
2023-04-02T02:49:49.985Z,92208.84
2023-04-02T02:52:17.276Z,92215.53
2023-04-02T02:54:47.168Z,92209.88
2023-04-02T02:57:15.692Z,92208.34
2023-04-02T02:59:42.359Z,92201.78
2023-04-02T03:02:08.935Z,92201.72
2023-04-02T03:04:35.784Z,92207.19
2023-04-02T03:07:03.544Z,92213.56
2023-04-02T03:09:47.116Z,92210.69
2023-04-02T03:12:36.063Z,92216.78
2023-04-02T03:15:19.217Z,92211.88
2023-04-02T03:17:55.745Z,92216.31
2023-04-02T03:20:28.339Z,92218.66
2023-04-02T03:23:11.994Z,92216.31
2023-04-02T03:25:41.691Z,92223.03
2023-04-02T03:28:12.905Z,92226.75
2023-04-02T03:30:47.363Z,92222.66
2023-04-02T03:33:21.469Z,92220.78
2023-04-02T03:36:10.750Z,92218.16
2023-04-02T03:38:41.935Z,92220.88
2023-04-02T03:41:13.535Z,92223.41
2023-04-02T03:43:41.210Z,92222.69
2023-04-02T03:46:24.829Z,92227.16
2023-04-02T03:48:56.060Z,92223.47
2023-04-02T03:51:50.814Z,92229.56
2023-04-02T03:54:17.309Z,92226.16
2023-04-02T03:56:43.766Z,92231.19
2023-04-02T03:59:35.046Z,92231.47
2023-04-02T04:02:50.040Z,92224.13
2023-04-02T04:05:28.492Z,92226.63
2023-04-02T04:07:59.746Z,92229.84
2023-04-02T04:10:26.312Z,92230.75
2023-04-02T04:12:54.491Z,92224.88
2023-04-02T04:15:53.456Z,92215.19
2023-04-02T04:18:44.758Z,92228.13
2023-04-02T04:21:29.812Z,92223.84
2023-04-02T04:23:57.966Z,92229.31
2023-04-02T04:26:31.044Z,92222.91
2023-04-02T04:29:22.224Z,92226.16
2023-04-02T04:31:49.675Z,92232.63
2023-04-02T04:34:27.170Z,92231.66
2023-04-02T04:37:01.894Z,92231.81
2023-04-02T04:39:45.895Z,92239.53
2023-04-02T04:42:21.262Z,92239.66
2023-04-02T04:45:12.663Z,92241.50
2023-04-02T04:47:41.487Z,92245.91
2023-04-02T04:50:17.652Z,92240.91
2023-04-02T04:52:44.514Z,92250.25
2023-04-02T04:55:26.264Z,92246.28
2023-04-02T04:57:56.516Z,92246.72
2023-04-02T05:00:27.386Z,92246.00
2023-04-02T05:02:57.551Z,92245.44
2023-04-02T05:05:29.639Z,92253.53
2023-04-02T05:08:02.520Z,92254.50
2023-04-02T05:10:54.748Z,92252.75
2023-04-02T05:13:24.069Z,92253.25
2023-04-02T05:16:26.256Z,92254.53
2023-04-02T05:19:07.969Z,92252.22
2023-04-02T05:21:43.992Z,92262.13
2023-04-02T05:24:25.783Z,92262.63
2023-04-02T05:26:52.360Z,92257.31
2023-04-02T05:29:34.124Z,92265.09
2023-04-02T05:32:09.337Z,92267.84
2023-04-02T05:34:40.159Z,92265.53
2023-04-02T05:37:09.102Z,92258.41
2023-04-02T05:39:35.594Z,92268.28
2023-04-02T05:42:06.461Z,92271.00
2023-04-02T05:44:39.227Z,92265.25
2023-04-02T05:47:08.738Z,92273.03
2023-04-02T05:49:55.496Z,92282.31
2023-04-02T05:52:23.960Z,92287.69
2023-04-02T05:54:55.121Z,92280.88
2023-04-02T05:57:39.556Z,92282.25
2023-04-02T06:00:12.968Z,92287.34
2023-04-02T06:02:41.366Z,92273.81
2023-04-02T06:05:19.289Z,92293.78
2023-04-02T06:08:08.588Z,92290.84
2023-04-02T06:10:44.920Z,92286.22
2023-04-02T06:13:12.101Z,92297.91
2023-04-02T06:15:38.582Z,92296.09
2023-04-02T06:18:11.431Z,92291.19
2023-04-02T06:20:37.878Z,92308.63
2023-04-02T06:23:44.131Z,92302.09
2023-04-02T06:26:33.521Z,92302.53
2023-04-02T06:29:01.595Z,92305.66
2023-04-02T06:31:40.833Z,92308.78
2023-04-02T06:34:11.428Z,92305.38
2023-04-02T06:36:37.884Z,92315.22
2023-04-02T06:39:06.983Z,92313.72
2023-04-02T06:41:33.535Z,92315.66
2023-04-02T06:44:15.851Z,92324.59
2023-04-02T06:46:52.428Z,92322.66
2023-04-02T06:49:31.267Z,92322.66
2023-04-02T06:51:57.735Z,92322.66
2023-04-02T06:54:24.220Z,92331.63
2023-04-02T06:56:51.943Z,92328.19
2023-04-02T06:59:18.644Z,92334.59
2023-04-02T07:02:06.608Z,92341.47
2023-04-02T07:04:33.295Z,92338.47
2023-04-02T07:06:59.814Z,92338.78
2023-04-02T07:09:26.669Z,92340.56
2023-04-02T07:11:53.154Z,92343.72
2023-04-02T07:14:19.616Z,92349.38
2023-04-02T07:16:46.223Z,92349.38
2023-04-02T07:19:20.424Z,92350.09
2023-04-02T07:21:47.083Z,92349.81
2023-04-02T07:24:13.582Z,92361.72
2023-04-02T07:26:40.203Z,92354.53
2023-04-02T07:29:08.036Z,92367.63
2023-04-02T07:31:34.574Z,92367.59
2023-04-02T07:34:01.375Z,92371.16
2023-04-02T07:36:28.761Z,92373.53
2023-04-02T07:38:55.218Z,92367.28
2023-04-02T07:41:21.982Z,92363.91
2023-04-02T07:43:48.485Z,92372.28
2023-04-02T07:46:16.732Z,92378.19
2023-04-02T07:48:43.990Z,92383.34
2023-04-02T07:51:20.518Z,92390.13
2023-04-02T07:53:50.227Z,92386.19
2023-04-02T07:56:19.386Z,92390.03
2023-04-02T07:58:45.914Z,92395.63
2023-04-02T08:01:25.706Z,92395.63
2023-04-02T08:03:54.468Z,92402.81
2023-04-02T08:06:21.575Z,92403.66
2023-04-02T08:08:48.118Z,92398.38
2023-04-02T08:11:14.586Z,92404.25
2023-04-02T08:13:41.361Z,92416.25
2023-04-02T08:16:08.237Z,92406.28
2023-04-02T08:18:34.883Z,92409.56
2023-04-02T08:21:01.369Z,92417.66
2023-04-02T08:23:28.198Z,92419.69
2023-04-02T08:25:54.825Z,92419.44
2023-04-02T08:28:21.421Z,92421.78
2023-04-02T08:30:49.190Z,92421.06
2023-04-02T08:33:16.609Z,92423.31
2023-04-02T08:35:43.175Z,92423.13
2023-04-02T08:38:14.638Z,92423.50
2023-04-02T08:40:42.712Z,92430.19
2023-04-02T08:43:18.361Z,92435.94
2023-04-02T08:45:51.353Z,92435.66
2023-04-02T08:48:17.989Z,92429.25
2023-04-02T08:50:44.615Z,92435.63
2023-04-02T08:53:15.876Z,92437.22
2023-04-02T08:55:55.793Z,92440.63
2023-04-02T08:58:39.488Z,92441.66
2023-04-02T09:01:06.029Z,92445.56
2023-04-02T09:03:40.283Z,92443.09
2023-04-02T09:06:07.511Z,92444.84
2023-04-02T09:08:35.496Z,92445.53
2023-04-02T09:11:27.447Z,92453.63
2023-04-02T09:13:58.355Z,92458.84
2023-04-02T09:16:34.806Z,92456.91
2023-04-02T09:19:02.125Z,92458.94
2023-04-02T09:21:35.815Z,92461.66
2023-04-02T09:24:03.957Z,92461.88
2023-04-02T09:26:32.407Z,92458.44
2023-04-02T09:29:08.105Z,92463.75
2023-04-02T09:31:37.599Z,92462.56
2023-04-02T09:34:28.612Z,92463.09
2023-04-02T09:36:55.422Z,92468.25
2023-04-02T09:39:23.463Z,92471.34
2023-04-02T09:42:02.861Z,92473.25
2023-04-02T09:44:32.384Z,92469.53
2023-04-02T09:47:03.957Z,92465.66
2023-04-02T09:49:36.111Z,92472.94
2023-04-02T09:52:21.804Z,92469.22
2023-04-02T09:55:14.507Z,92478.19
2023-04-02T09:57:41.218Z,92477.38
2023-04-02T10:02:43.358Z,92476.94
2023-04-02T10:05:30.106Z,92476.31
2023-04-02T10:08:19.780Z,92479.00
2023-04-02T10:10:50.792Z,92487.09
2023-04-02T10:13:46.392Z,92482.66
2023-04-02T10:16:14.616Z,92486.09
2023-04-02T10:18:44.008Z,92488.34
2023-04-02T10:21:12.092Z,92491.09
2023-04-02T10:23:38.565Z,92489.19
2023-04-02T10:26:27.373Z,92493.78
2023-04-02T10:29:12.548Z,92482.53
2023-04-02T10:31:47.149Z,92493.28
2023-04-02T10:34:37.792Z,92484.78
2023-04-02T10:37:22.966Z,92483.81
2023-04-02T10:39:58.421Z,92492.50
2023-04-02T10:42:33.604Z,92488.47
2023-04-02T10:45:19.993Z,92496.75
2023-04-02T10:47:52.021Z,92500.19
2023-04-02T10:50:39.703Z,92506.38
2023-04-02T10:53:17.326Z,92512.34
2023-04-02T10:55:45.712Z,92504.38
2023-04-02T10:58:31.718Z,92505.22
2023-04-02T11:01:04.287Z,92510.09
2023-04-02T11:03:43.734Z,92501.06
2023-04-02T11:06:22.993Z,92505.44
2023-04-02T11:08:51.258Z,92515.63
2023-04-02T11:11:22.559Z,92508.44
2023-04-02T11:14:03.297Z,92508.97
2023-04-02T11:16:30.064Z,92515.13
2023-04-02T11:19:14.807Z,92515.38
2023-04-02T11:21:57.986Z,92521.97
2023-04-02T11:24:32.862Z,92522.31
2023-04-02T11:27:06.872Z,92532.47
2023-04-02T11:29:34.588Z,92534.50
2023-04-02T11:32:27.328Z,92534.72
2023-04-02T11:35:05.796Z,92528.16
2023-04-02T11:37:39.914Z,92538.03
2023-04-02T11:40:13.815Z,92531.47
2023-04-02T11:42:41.189Z,92530.47
2023-04-02T11:45:28.727Z,92526.84
2023-04-02T11:48:01.429Z,92535.13
2023-04-02T11:50:32.882Z,92526.09
2023-04-02T11:53:12.182Z,92533.56
2023-04-02T11:55:42.946Z,92540.28
2023-04-02T11:58:21.030Z,92539.28
2023-04-02T12:01:15.404Z,92548.22
2023-04-02T12:04:07.845Z,92547.47
2023-04-02T12:06:46.866Z,92544.25
2023-04-02T12:09:24.278Z,92545.97
2023-04-02T12:11:52.060Z,92546.69
2023-04-02T12:14:46.320Z,92544.41
2023-04-02T12:17:32.122Z,92549.59
2023-04-02T12:20:10.633Z,92548.66
2023-04-02T12:22:41.370Z,92547.53
2023-04-02T12:25:31.666Z,92557.66
2023-04-02T12:28:10.278Z,92549.66
2023-04-02T12:30:37.795Z,92555.66
2023-04-02T12:33:20.114Z,92555.81
2023-04-02T12:35:47.081Z,92561.50
2023-04-02T12:38:28.051Z,92555.50
2023-04-02T12:41:03.698Z,92563.59
2023-04-02T12:43:31.775Z,92564.53
2023-04-02T12:46:00.256Z,92562.84
2023-04-02T12:48:27.286Z,92562.31
2023-04-02T12:50:53.916Z,92567.38
2023-04-02T12:53:26.261Z,92570.72
2023-04-02T12:55:52.938Z,92563.41
2023-04-02T12:58:26.670Z,92562.41
2023-04-02T13:00:53.179Z,92562.44
2023-04-02T13:03:21.392Z,92567.88
2023-04-02T13:05:52.510Z,92563.22
2023-04-02T13:08:30.012Z,92574.00
2023-04-02T13:10:58.472Z,92574.41
2023-04-02T13:13:35.831Z,92573.28
2023-04-02T13:16:03.573Z,92571.31
2023-04-02T13:18:30.297Z,92575.00
2023-04-02T13:21:01.115Z,92563.25
2023-04-02T13:23:27.595Z,92575.28
2023-04-02T13:25:54.082Z,92582.03
2023-04-02T13:28:20.828Z,92577.00
2023-04-02T13:30:47.379Z,92563.69
2023-04-02T13:33:14.571Z,92567.84
2023-04-02T13:35:41.623Z,92571.06
2023-04-02T13:38:08.642Z,92571.00
2023-04-02T13:40:36.439Z,92577.63
2023-04-02T13:43:04.018Z,92574.69
2023-04-02T13:45:39.716Z,92576.75
2023-04-02T13:48:07.197Z,92573.41
2023-04-02T13:50:34.746Z,92569.63
2023-04-02T13:53:05.985Z,92586.06
2023-04-02T13:55:36.586Z,92568.69
2023-04-02T13:58:03.554Z,92573.78
2023-04-02T14:00:30.245Z,92571.16
2023-04-02T14:03:02.942Z,92580.50
2023-04-02T14:05:38.234Z,92583.03
2023-04-02T14:08:08.957Z,92574.09
2023-04-02T14:10:54.217Z,92574.75
2023-04-02T14:13:57.894Z,92586.91
2023-04-02T14:16:50.606Z,92576.75
2023-04-02T14:19:50.925Z,92577.47
2023-04-02T14:22:21.512Z,92583.06
2023-04-02T14:24:50.859Z,92580.06
2023-04-02T14:27:29.428Z,92579.91
2023-04-02T14:30:06.496Z,92587.94
2023-04-02T14:33:10.535Z,92589.16
2023-04-02T14:35:45.011Z,92592.00
2023-04-02T14:38:33.120Z,92592.38
2023-04-02T14:41:22.069Z,92585.28
2023-04-02T14:43:53.299Z,92592.16
2023-04-02T14:46:19.854Z,92606.19
2023-04-02T14:48:51.174Z,92604.03
2023-04-02T14:51:29.474Z,92608.78
2023-04-02T14:54:12.378Z,92607.06
2023-04-02T14:56:53.941Z,92608.63
2023-04-02T14:59:29.392Z,92614.25
2023-04-02T15:02:06.775Z,92620.06
2023-04-02T15:04:37.094Z,92612.72
2023-04-02T15:07:07.613Z,92617.09
2023-04-02T15:09:38.022Z,92616.31
2023-04-02T15:12:09.418Z,92612.28
2023-04-02T15:14:42.425Z,92608.88
2023-04-02T15:17:12.097Z,92614.72
2023-04-02T15:19:38.577Z,92613.06
2023-04-02T15:22:17.069Z,92608.13
2023-04-02T15:25:21.993Z,92602.47
2023-04-02T15:27:58.003Z,92608.78
2023-04-02T15:30:44.666Z,92600.16
2023-04-02T15:33:37.478Z,92610.81
2023-04-02T15:36:16.146Z,92609.72
2023-04-02T15:38:52.211Z,92602.56
2023-04-02T15:41:26.231Z,92612.31
2023-04-02T15:44:06.987Z,92613.63
2023-04-02T15:46:50.685Z,92611.44
2023-04-02T15:49:41.728Z,92610.31
2023-04-02T15:52:09.702Z,92612.59
2023-04-02T15:54:54.871Z,92611.28
2023-04-02T15:57:46.957Z,92617.84
2023-04-02T16:00:30.480Z,92620.28
2023-04-02T16:03:12.198Z,92619.91
2023-04-02T16:05:58.471Z,92616.97
2023-04-02T16:08:34.027Z,92619.16
2023-04-02T16:11:00.557Z,92614.00
2023-04-02T16:13:31.504Z,92621.16
2023-04-02T16:16:04.026Z,92618.28
2023-04-02T16:18:38.369Z,92614.63
2023-04-02T16:21:04.920Z,92616.34
2023-04-02T16:23:36.237Z,92626.13
2023-04-02T16:26:10.544Z,92628.63
2023-04-02T16:28:42.677Z,92632.91
2023-04-02T16:31:25.950Z,92629.63
2023-04-02T16:34:05.255Z,92644.50
2023-04-02T16:37:01.173Z,92647.13
2023-04-02T16:39:46.231Z,92649.25
2023-04-02T16:42:34.292Z,92641.66
2023-04-02T16:45:13.536Z,92665.53
2023-04-02T16:47:47.654Z,92664.53
2023-04-02T16:50:20.816Z,92658.44
2023-04-02T16:53:30.734Z,92670.03
2023-04-02T16:56:06.204Z,92680.19
2023-04-02T16:58:54.247Z,92682.91
2023-04-02T17:01:33.002Z,92685.84
2023-04-02T17:04:20.305Z,92692.03
2023-04-02T17:06:57.130Z,92694.94
2023-04-02T17:09:26.529Z,92697.69
2023-04-02T17:11:55.544Z,92696.78
2023-04-02T17:14:23.466Z,92695.81
2023-04-02T17:16:51.829Z,92709.47
2023-04-02T17:19:18.851Z,92694.22
2023-04-02T17:21:52.198Z,92710.19
2023-04-02T17:24:32.283Z,92712.91
2023-04-02T17:27:00.947Z,92712.94
2023-04-02T17:29:32.767Z,92722.25
2023-04-02T17:32:01.406Z,92729.44
2023-04-02T17:34:28.388Z,92730.59
2023-04-02T17:37:22.562Z,92731.50
2023-04-02T17:40:29.169Z,92736.56
2023-04-02T17:43:19.204Z,92733.56
2023-04-02T17:45:51.746Z,92735.22
2023-04-02T17:48:41.300Z,92736.41
2023-04-02T17:51:30.553Z,92738.06
2023-04-02T17:54:00.300Z,92744.81
2023-04-02T17:56:29.383Z,92742.91
2023-04-02T17:59:33.485Z,92741.78
2023-04-02T18:02:31.104Z,92742.13
2023-04-02T18:05:06.993Z,92758.28
2023-04-02T18:07:43.129Z,92761.44
2023-04-02T18:10:19.938Z,92758.44
2023-04-02T18:13:20.557Z,92755.00
2023-04-02T18:15:49.934Z,92764.28
2023-04-02T18:18:19.270Z,92763.66
2023-04-02T18:21:06.732Z,92760.94
2023-04-02T18:23:50.591Z,92766.34
2023-04-02T18:26:34.020Z,92770.66
2023-04-02T18:29:24.805Z,92773.97
2023-04-02T18:31:57.376Z,92775.47
2023-04-02T18:34:26.523Z,92781.00
2023-04-02T18:37:16.392Z,92777.75
2023-04-02T18:40:06.557Z,92792.69
2023-04-02T18:42:36.092Z,92793.28
2023-04-02T18:45:05.946Z,92797.34
2023-04-02T18:47:37.490Z,92797.19
2023-04-02T18:50:21.863Z,92790.16
2023-04-02T18:52:48.636Z,92813.97
2023-04-02T18:55:27.175Z,92798.25
2023-04-02T18:58:04.370Z,92806.34
2023-04-02T19:00:33.727Z,92808.44
2023-04-02T19:03:10.643Z,92816.94
2023-04-02T19:05:44.821Z,92820.66
2023-04-02T19:08:16.593Z,92815.44
2023-04-02T19:10:47.598Z,92826.47
2023-04-02T19:13:15.786Z,92827.66
2023-04-02T19:15:48.221Z,92836.19
2023-04-02T19:18:47.136Z,92837.50
2023-04-02T19:21:26.643Z,92840.84
2023-04-02T19:23:52.991Z,92838.59
2023-04-02T19:26:22.745Z,92840.84
2023-04-02T19:29:15.544Z,92850.66
2023-04-02T19:31:53.219Z,92850.19
2023-04-02T19:34:33.823Z,92856.91
2023-04-02T19:37:12.510Z,92853.34
2023-04-02T19:39:39.572Z,92854.69
2023-04-02T19:42:14.551Z,92856.34
2023-04-02T19:44:43.026Z,92857.22
2023-04-02T19:47:10.398Z,92866.06
2023-04-02T19:49:37.037Z,92872.50
2023-04-02T19:52:03.557Z,92874.28
2023-04-02T19:54:30.298Z,92881.63
2023-04-02T19:56:56.798Z,92877.56
2023-04-02T19:59:23.379Z,92891.91
2023-04-02T20:01:49.872Z,92881.75
2023-04-02T20:04:16.405Z,92897.03
2023-04-02T20:06:42.998Z,92892.84
2023-04-02T20:09:09.584Z,92888.44
2023-04-02T20:11:36.998Z,92893.97
2023-04-02T20:14:03.571Z,92896.22
2023-04-02T20:16:30.315Z,92890.50
2023-04-02T20:18:57.130Z,92893.88
2023-04-02T20:21:23.636Z,92894.63
2023-04-02T20:23:53.585Z,92897.00
2023-04-02T20:26:22.646Z,92899.84
2023-04-02T20:28:49.583Z,92902.41
2023-04-02T20:31:17.271Z,92902.22
2023-04-02T20:33:44.645Z,92915.69
2023-04-02T20:36:13.640Z,92904.28
2023-04-02T20:38:40.192Z,92907.16
2023-04-02T20:41:07.076Z,92903.28
2023-04-02T20:43:33.934Z,92905.84
2023-04-02T20:46:03.651Z,92911.66
2023-04-02T20:48:33.153Z,92910.03
2023-04-02T20:51:00.173Z,92914.22
2023-04-02T20:53:29.411Z,92910.91
2023-04-02T20:56:12.353Z,92905.84
2023-04-02T20:58:39.133Z,92916.16
2023-04-02T21:01:19.767Z,92916.06
2023-04-02T21:03:46.308Z,92922.19
2023-04-02T21:06:14.015Z,92916.06
2023-04-02T21:08:40.716Z,92914.97
2023-04-02T21:11:07.416Z,92911.97
2023-04-02T21:13:36.075Z,92905.09
2023-04-02T21:16:06.693Z,92919.00
2023-04-02T21:18:33.175Z,92916.31
2023-04-02T21:21:04.890Z,92918.69
2023-04-02T21:23:31.986Z,92922.88
2023-04-02T21:25:59.505Z,92910.00
2023-04-02T21:28:26.127Z,92913.56
2023-04-02T21:30:52.634Z,92919.81
2023-04-02T21:33:19.107Z,92924.00
2023-04-02T21:35:45.741Z,92928.84
2023-04-02T21:38:12.363Z,92927.31
2023-04-02T21:40:38.866Z,92932.97
2023-04-02T21:43:05.321Z,92927.53
2023-04-02T21:45:31.834Z,92940.34
2023-04-02T21:47:58.314Z,92936.19
2023-04-02T21:50:24.840Z,92943.03
2023-04-02T21:52:51.467Z,92932.38
2023-04-02T21:55:17.922Z,92937.44
2023-04-02T21:57:44.441Z,92943.44
2023-04-02T22:00:13.634Z,92930.34
2023-04-02T22:02:40.399Z,92932.44
2023-04-02T22:05:07.409Z,92928.56
2023-04-02T22:07:33.905Z,92937.59
2023-04-02T22:10:00.441Z,92935.81
2023-04-02T22:12:26.914Z,92928.94
2023-04-02T22:14:53.429Z,92931.09
2023-04-02T22:17:19.915Z,92932.91
2023-04-02T22:19:46.373Z,92927.53
2023-04-02T22:22:12.910Z,92931.09
2023-04-02T22:24:39.377Z,92936.03
2023-04-02T22:27:05.844Z,92928.41
2023-04-02T22:29:32.412Z,92933.44
2023-04-02T22:31:58.932Z,92938.81
2023-04-02T22:34:25.387Z,92936.28
2023-04-02T22:36:52.998Z,92933.59
2023-04-02T22:39:19.491Z,92928.34
2023-04-02T22:41:46.346Z,92927.91
2023-04-02T22:44:13.753Z,92925.50
2023-04-02T22:46:40.484Z,92927.75
2023-04-02T22:49:07.086Z,92927.59
2023-04-02T22:51:33.645Z,92931.03
2023-04-02T22:54:00.223Z,92923.19
2023-04-02T22:56:29.565Z,92928.69
2023-04-02T22:58:56.136Z,92926.00
2023-04-02T23:01:24.903Z,92929.31
2023-04-02T23:03:53.011Z,92933.06
2023-04-02T23:06:19.683Z,92929.97
2023-04-02T23:08:46.679Z,92925.34
2023-04-02T23:11:23.481Z,92924.44
2023-04-02T23:13:51.795Z,92920.69
2023-04-02T23:16:18.357Z,92925.34
2023-04-02T23:18:47.244Z,92919.81
2023-04-02T23:21:13.800Z,92922.06
2023-04-02T23:23:40.315Z,92915.50
2023-04-02T23:26:07.769Z,92912.81
2023-04-02T23:28:34.530Z,92921.00
2023-04-02T23:31:01.907Z,92918.00
2023-04-02T23:33:28.541Z,92918.56
2023-04-02T23:35:55.053Z,92919.44
2023-04-02T23:38:21.564Z,92919.00
2023-04-02T23:40:48.035Z,92921.38
2023-04-02T23:43:14.650Z,92920.19
2023-04-02T23:45:41.274Z,92921.91
2023-04-02T23:48:07.796Z,92915.44
2023-04-02T23:50:34.611Z,92905.41
2023-04-02T23:53:01.267Z,92910.50
2023-04-02T23:55:27.764Z,92909.31
2023-04-02T23:57:54.254Z,92907.69
